Time;durP1;ratioP1;P1;durP2;ratioP2;P2;SDS_P1;SDS_P2;PMS_P1;PMS_P2;Temp;Humidity;BMP_temperature;BMP_pressure;BME280_temperature;BME280_humidity;BME280_pressure;Samples;Min_cycle;Max_cycle;Signal;HPM_P1;HPM_P2
2022/05/20 00:00:47;;;;;;;19.30;11.75;;;;;;;18.70;61.68;100565.06;5115155;27;20528;-68
2022/05/20 00:03:15;;;;;;;12.43;9.85;;;;;;;18.64;61.63;100555.06;5107091;27;20153;-70
2022/05/20 00:05:43;;;;;;;20.70;10.40;;;;;;;18.68;61.58;100570.19;5109157;27;20082;-70
2022/05/20 00:08:10;;;;;;;15.75;9.90;;;;;;;18.62;61.66;100551.75;5135505;27;20545;-69
2022/05/20 00:10:37;;;;;;;16.58;10.35;;;;;;;18.70;61.52;100572.72;5116009;27;20123;-69
2022/05/20 00:13:04;;;;;;;20.58;10.32;;;;;;;18.39;61.76;100510.69;5115558;28;20043;-71
2022/05/20 00:15:31;;;;;;;13.88;10.48;;;;;;;18.77;61.29;100569.38;5119157;27;20127;-71
2022/05/20 00:17:58;;;;;;;12.45;10.63;;;;;;;18.73;61.36;100560.72;5136025;27;20548;-71
2022/05/20 00:20:27;;;;;;;20.83;10.50;;;;;;;18.76;61.79;100564.91;5127405;27;20131;-70
2022/05/20 00:22:56;;;;;;;14.50;10.40;;;;;;;18.74;61.47;100564.41;5118764;27;20469;-69
2022/05/20 00:28:10;;;;;;;16.58;10.60;;;;;;;18.59;61.30;100548.75;5114821;28;20047;-68
2022/05/20 00:30:37;;;;;;;21.30;10.05;;;;;;;18.69;61.76;100566.19;5115129;27;20094;-69
2022/05/20 00:33:05;;;;;;;11.20;9.95;;;;;;;18.37;61.75;100521.50;5115389;28;20122;-69
2022/05/20 00:35:32;;;;;;;14.32;10.95;;;;;;;18.51;61.60;100541.94;5122209;27;20468;-68
2022/05/20 00:37:58;;;;;;;16.88;11.77;;;;;;;18.51;61.72;100536.28;5135472;27;20139;-67
2022/05/20 00:40:28;;;;;;;18.08;11.93;;;;;;;18.48;61.53;100531.31;5126312;27;20130;-68
2022/05/20 00:43:09;;;;;;;14.68;10.98;;;;;;;18.52;61.69;100551.25;5113793;28;20101;-68
2022/05/20 00:45:37;;;;;;;12.82;11.45;;;;;;;18.58;61.88;100559.22;5115839;27;20057;-68
2022/05/20 00:48:05;;;;;;;15.65;12.30;;;;;;;18.59;61.96;100538.25;5114862;28;20092;-68
2022/05/20 00:50:32;;;;;;;12.60;10.98;;;;;;;18.45;62.34;100517.81;5114348;27;20561;-68
2022/05/20 00:53:01;;;;;;;12.98;10.40;;;;;;;18.33;62.03;100509.22;5134887;27;20078;-69
2022/05/20 00:55:28;;;;;;;16.25;10.10;;;;;;;18.38;61.92;100523.16;5121173;27;20127;-69
2022/05/20 00:58:12;;;;;;;17.35;11.70;;;;;;;18.45;61.82;100546.09;5113931;27;20055;-68
2022/05/20 01:00:44;;;;;;;21.58;11.52;;;;;;;18.47;61.93;100538.13;5095558;28;20102;-68
2022/05/20 01:03:15;;;;;;;12.85;11.75;;;;;;;18.46;62.08;100523.16;5113322;28;20048;-69
2022/05/20 01:05:45;;;;;;;17.63;14.57;;;;;;;18.39;62.27;100534.16;5113434;27;20323;-69
2022/05/20 01:08:16;;;;;;;18.55;12.32;;;;;;;18.48;62.14;100545.44;5132685;27;20129;-69
2022/05/20 01:10:43;;;;;;;17.35;11.32;;;;;;;18.42;62.49;100553.25;5135312;27;20126;-69
2022/05/20 01:13:15;;;;;;;17.63;11.60;;;;;;;18.36;62.46;100536.78;5134806;27;20058;-69
2022/05/20 01:15:42;;;;;;;18.90;15.20;;;;;;;18.24;62.69;100534.66;5126948;27;20607;-69
2022/05/20 01:18:12;;;;;;;14.52;13.05;;;;;;;18.24;62.72;100532.66;5121336;27;20051;-69
2022/05/20 01:20:45;;;;;;;16.42;13.40;;;;;;;18.35;62.77;100552.09;5108471;28;20446;-69
2022/05/20 01:23:15;;;;;;;19.65;12.68;;;;;;;18.20;62.65;100526.00;5096487;28;20059;-69
2022/05/20 01:25:46;;;;;;;12.65;11.23;;;;;;;18.37;62.42;100556.25;5117258;27;20075;-70
2022/05/20 01:28:13;;;;;;;13.93;10.90;;;;;;;18.35;62.55;100558.56;5099668;28;20213;-69
2022/05/20 01:30:47;;;;;;;25.35;17.67;;;;;;;18.38;62.74;100554.25;5108833;27;20057;-69
2022/05/20 01:33:23;;;;;;;31.80;20.75;;;;;;;18.37;62.37;100544.13;5103004;28;20130;-69
2022/05/20 01:35:51;;;;;;;39.83;24.70;;;;;;;18.33;62.57;100534.66;5112936;27;20127;-70
2022/05/20 01:38:18;;;;;;;40.30;24.08;;;;;;;18.03;63.27;100483.63;5107207;28;20090;-71
2022/05/20 01:40:49;;;;;;;40.63;23.27;;;;;;;18.03;62.86;100489.25;5111206;27;20135;-71
2022/05/20 01:43:39;;;;;;;29.38;18.38;;;;;;;18.38;62.98;100542.94;5116109;27;20157;-69
2022/05/20 01:46:21;;;;;;;34.80;15.18;;;;;;;18.35;63.10;100540.78;5109795;27;20084;-69
2022/05/20 01:49:01;;;;;;;16.00;11.63;;;;;;;18.23;62.94;100522.50;5109148;27;20073;-69
2022/05/20 01:51:35;;;;;;;20.67;13.15;;;;;;;18.19;63.28;100507.38;5121170;27;20130;-69
2022/05/20 01:54:12;;;;;;;16.17;11.48;;;;;;;18.23;63.12;100510.38;5108771;27;20079;-69
2022/05/20 01:56:47;;;;;;;15.27;11.35;;;;;;;18.20;63.21;100499.72;5102220;27;20562;-69
2022/05/20 01:59:25;;;;;;;20.65;11.07;;;;;;;18.23;63.17;100513.19;5104223;28;20466;-68
2022/05/20 02:02:03;;;;;;;20.95;12.38;;;;;;;18.15;63.68;100494.22;5111734;27;20142;-69
2022/05/20 02:04:43;;;;;;;19.63;10.95;;;;;;;18.19;63.44;100493.25;5109930;28;20044;-70
2022/05/20 02:07:18;;;;;;;14.15;11.98;;;;;;;17.78;63.75;100423.13;5094795;27;20052;-69
2022/05/20 02:09:57;;;;;;;16.25;11.38;;;;;;;18.28;63.63;100501.72;5104041;28;20071;-68
2022/05/20 02:12:27;;;;;;;17.95;11.55;;;;;;;18.16;64.12;100481.78;5104610;27;20131;-69
2022/05/20 02:15:09;;;;;;;20.15;11.50;;;;;;;18.28;63.70;100495.22;5122566;27;20134;-69
2022/05/20 02:17:40;;;;;;;26.90;11.65;;;;;;;18.26;63.78;100486.28;5106555;28;20078;-69
2022/05/20 02:20:15;;;;;;;16.42;12.13;;;;;;;18.15;64.01;100468.78;5106578;28;20074;-70
2022/05/20 02:22:46;;;;;;;17.08;11.45;;;;;;;18.30;63.94;100487.25;5111372;27;20086;-70
2022/05/20 02:25:19;;;;;;;15.80;10.82;;;;;;;18.13;63.50;100466.31;5109704;28;20126;-70
2022/05/20 02:27:56;;;;;;;16.95;11.85;;;;;;;18.32;63.76;100490.56;5111931;28;20075;-68
2022/05/20 02:30:28;;;;;;;14.02;11.07;;;;;;;18.34;63.41;100493.91;5110304;28;20143;-70
2022/05/20 02:32:59;;;;;;;19.42;11.70;;;;;;;18.32;63.42;100502.69;5106407;28;20120;-69
2022/05/20 02:35:26;;;;;;;11.90;10.65;;;;;;;18.22;63.55;100501.06;5111244;27;20078;-69
2022/05/20 02:38:04;;;;;;;13.93;10.07;;;;;;;18.12;63.58;100498.59;5100547;28;20569;-69
2022/05/20 02:40:31;;;;;;;13.43;9.77;;;;;;;18.09;63.61;100509.72;5103630;28;20073;-68
2022/05/20 02:42:57;;;;;;;14.75;9.73;;;;;;;17.74;63.36;100454.00;5110613;28;20105;-68
2022/05/20 02:45:24;;;;;;;12.40;11.20;;;;;;;17.98;63.71;100497.88;5109952;28;20079;-68
2022/05/20 02:47:51;;;;;;;12.32;10.30;;;;;;;18.00;63.17;100495.56;5110534;28;20143;-70
2022/05/20 02:50:18;;;;;;;14.88;10.50;;;;;;;17.99;63.46;100505.22;5111885;28;20146;-69
2022/05/20 02:52:45;;;;;;;15.02;10.15;;;;;;;17.91;63.44;100526.63;5110237;28;20097;-69
2022/05/20 02:55:12;;;;;;;11.27;10.23;;;;;;;17.74;63.03;100521.78;5112568;28;20097;-70
2022/05/20 02:57:39;;;;;;;13.63;10.57;;;;;;;17.73;63.22;100514.44;5110117;28;20056;-70
2022/05/20 03:05:38;;;;;;;15.07;9.70;;;;;;;17.68;62.89;100502.50;5119499;27;20134;-70
2022/05/20 03:08:05;;;;;;;10.45;9.50;;;;;;;17.59;62.47;100488.34;5114688;27;20609;-70
2022/05/20 03:10:32;;;;;;;12.68;10.02;;;;;;;17.74;62.72;100506.81;5115956;27;20134;-69
2022/05/20 03:13:04;;;;;;;13.00;10.02;;;;;;;17.73;62.29;100500.34;5116122;28;20071;-68
2022/05/20 03:15:31;;;;;;;11.05;9.93;;;;;;;17.76;62.35;100507.34;5113244;27;20062;-68
2022/05/20 03:17:58;;;;;;;12.27;10.68;;;;;;;17.55;62.64;100484.53;5115866;27;20083;-68
2022/05/20 03:20:25;;;;;;;16.67;10.10;;;;;;;17.52;62.49;100473.88;5114839;27;20131;-68
2022/05/20 03:22:52;;;;;;;13.68;10.57;;;;;;;17.66;62.35;100502.81;5118883;27;20138;-68
2022/05/20 03:25:20;;;;;;;11.82;9.55;;;;;;;17.47;62.90;100471.22;5112948;27;20078;-68
2022/05/20 03:27:49;;;;;;;16.25;10.85;;;;;;;17.57;62.93;100501.97;5120379;27;20052;-68
2022/05/20 03:30:16;;;;;;;18.33;11.27;;;;;;;17.55;62.90;100495.00;5112007;27;20130;-68
2022/05/20 03:32:43;;;;;;;12.38;10.18;;;;;;;17.51;62.78;100497.66;5130960;27;20071;-68
2022/05/20 03:35:11;;;;;;;11.65;10.25;;;;;;;17.51;62.54;100490.00;5115224;27;20432;-69
2022/05/20 03:37:37;;;;;;;14.07;9.68;;;;;;;17.44;62.50;100488.84;5115204;27;20090;-69
2022/05/20 03:40:05;;;;;;;17.05;10.68;;;;;;;17.52;62.29;100488.84;5115055;27;20561;-69
2022/05/20 03:42:32;;;;;;;16.25;10.27;;;;;;;17.46;62.39;100486.50;5113762;27;20127;-69
2022/05/20 03:45:00;;;;;;;15.07;10.40;;;;;;;17.44;62.54;100483.19;5115310;28;20048;-68
2022/05/20 03:47:27;;;;;;;14.60;9.45;;;;;;;17.49;62.50;100494.31;5113122;27;20161;-68
2022/05/20 03:49:54;;;;;;;18.73;10.63;;;;;;;17.44;62.67;100486.00;5116183;27;20062;-68
2022/05/20 03:52:21;;;;;;;12.55;9.93;;;;;;;17.50;62.27;100493.13;5107623;28;20131;-68
2022/05/20 03:54:48;;;;;;;10.95;9.77;;;;;;;17.45;62.20;100491.31;5114228;28;20131;-68
2022/05/20 03:57:14;;;;;;;10.70;9.70;;;;;;;17.53;62.69;100495.31;5116312;27;20142;-68
2022/05/20 03:59:41;;;;;;;13.68;11.20;;;;;;;17.51;62.61;100506.94;5115759;27;20090;-69
2022/05/20 04:02:11;;;;;;;11.50;10.40;;;;;;;17.48;62.22;100509.59;5106870;28;20375;-67
2022/05/20 04:04:48;;;;;;;12.60;11.00;;;;;;;17.36;62.04;100496.09;5116326;27;20047;-68
2022/05/20 04:07:21;;;;;;;13.77;10.27;;;;;;;17.27;62.47;100473.50;5106987;27;20447;-68
2022/05/20 04:09:48;;;;;;;16.00;12.00;;;;;;;17.28;62.05;100468.69;5122750;27;20134;-68
2022/05/20 04:12:27;;;;;;;12.82;11.82;;;;;;;17.35;62.50;100491.63;5109460;27;20508;-69
2022/05/20 04:14:55;;;;;;;20.15;11.85;;;;;;;17.33;62.67;100488.28;5097151;27;20135;-69
2022/05/20 04:17:22;;;;;;;13.30;11.00;;;;;;;17.15;63.03;100476.13;5109151;27;20055;-68
2022/05/20 04:19:49;;;;;;;14.57;11.73;;;;;;;17.18;62.68;100481.09;5112843;27;20086;-69
2022/05/20 04:22:20;;;;;;;23.40;12.18;;;;;;;17.10;62.44;100467.81;5123569;27;20131;-68
2022/05/20 04:24:47;;;;;;;13.75;10.68;;;;;;;17.10;63.04;100490.38;5106606;27;20134;-69
2022/05/20 04:27:15;;;;;;;14.60;10.75;;;;;;;17.11;63.05;100492.03;5103832;27;20135;-69
2022/05/20 04:29:42;;;;;;;12.15;10.35;;;;;;;16.64;62.89;100423.94;5107165;27;20048;-69
2022/05/20 04:32:09;;;;;;;14.25;12.45;;;;;;;16.90;63.12;100463.56;5111544;27;20082;-68
2022/05/20 04:34:36;;;;;;;16.33;10.70;;;;;;;17.07;63.31;100496.66;5098083;28;20135;-69
2022/05/20 04:37:04;;;;;;;12.85;11.55;;;;;;;17.07;63.50;100509.94;5105656;27;20570;-68
2022/05/20 04:39:31;;;;;;;25.65;11.63;;;;;;;16.94;63.46;100486.31;5112445;27;20081;-68
2022/05/20 04:47:32;;;;;;;12.90;11.23;;;;;;;17.19;63.35;100521.44;5122664;27;20073;-68
2022/05/20 04:50:00;;;;;;;13.75;11.45;;;;;;;17.02;62.90;100496.81;5113060;27;20182;-68
2022/05/20 04:52:27;;;;;;;15.77;12.10;;;;;;;17.08;63.04;100520.91;5121283;27;20143;-68
2022/05/20 04:54:53;;;;;;;12.38;11.18;;;;;;;17.15;63.03;100543.00;5112879;27;20150;-67
2022/05/20 04:57:33;;;;;;;12.07;10.90;;;;;;;16.88;62.94;100494.09;5110119;27;20087;-67
2022/05/20 05:00:27;;;;;;;;;;;;;;;17.09;62.81;100549.94;5108123;27;20048;-67
2022/05/20 05:02:54;;;;;;;15.25;10.82;;;;;;;17.11;63.13;100564.56;5110551;27;19919;-67
2022/05/20 05:05:24;;;;;;;12.40;11.35;;;;;;;17.08;62.93;100568.03;5114674;28;20047;-68
2022/05/20 05:07:53;;;;;;;15.30;10.80;;;;;;;17.09;63.09;100573.34;5118401;27;20059;-70
2022/05/20 05:10:23;;;;;;;13.93;10.02;;;;;;;16.95;63.01;100550.88;5110739;27;20078;-68
2022/05/20 05:12:51;;;;;;;12.60;11.03;;;;;;;17.08;62.44;100570.84;5110664;27;20138;-69
2022/05/20 05:15:18;;;;;;;23.52;16.38;;;;;;;16.95;62.58;100545.22;5108076;27;20154;-69
2022/05/20 05:20:32;;;;;;;17.13;12.25;;;;;;;16.98;63.08;100549.41;5113019;28;20112;-68
2022/05/20 05:23:00;;;;;;;20.88;12.48;;;;;;;16.97;63.19;100564.66;5100995;27;20448;-70
2022/05/20 05:25:30;;;;;;;14.07;11.07;;;;;;;16.95;63.16;100561.31;5114893;27;20051;-71
2022/05/20 05:27:57;;;;;;;14.75;10.77;;;;;;;16.93;63.35;100575.75;5112837;27;20127;-69
2022/05/20 05:30:25;;;;;;;11.98;10.70;;;;;;;17.00;63.18;100595.06;5110330;27;20079;-68
2022/05/20 05:32:52;;;;;;;12.95;11.65;;;;;;;16.98;63.40;100591.72;5110926;28;20128;-70
2022/05/20 05:35:23;;;;;;;12.38;11.18;;;;;;;16.96;63.35;100608.97;5121561;27;20135;-68
2022/05/20 05:37:50;;;;;;;11.73;10.00;;;;;;;17.00;63.48;100626.09;5119137;27;20138;-69
2022/05/20 05:40:22;;;;;;;17.42;11.35;;;;;;;17.03;63.19;100614.16;5102322;28;20075;-70
2022/05/20 05:42:50;;;;;;;11.07;9.95;;;;;;;17.10;63.02;100622.16;5131085;27;20129;-69
2022/05/20 05:45:20;;;;;;;11.38;9.65;;;;;;;17.02;63.23;100613.31;5113156;27;20059;-70
2022/05/20 05:47:51;;;;;;;12.73;10.43;;;;;;;17.09;63.51;100629.78;5114014;28;20048;-70
2022/05/20 05:50:20;;;;;;;11.32;10.00;;;;;;;17.14;63.45;100640.94;5112723;27;20094;-69
2022/05/20 05:52:53;;;;;;;13.60;10.30;;;;;;;17.05;63.24;100626.75;5112620;28;20078;-69
2022/05/20 05:55:20;;;;;;;12.38;10.35;;;;;;;17.32;62.90;100632.56;5112767;28;20050;-68
2022/05/20 05:57:46;;;;;;;13.30;11.25;;;;;;;17.51;62.73;100636.00;5112861;27;20052;-69
2022/05/20 06:00:14;;;;;;;14.48;13.10;;;;;;;17.51;62.63;100628.34;5119784;27;20123;-69
2022/05/20 06:02:41;;;;;;;21.35;11.25;;;;;;;17.74;61.83;100643.25;5110635;28;20210;-70
2022/05/20 06:05:08;;;;;;;13.55;11.38;;;;;;;17.91;62.15;100633.16;5114999;27;20048;-69
2022/05/20 06:07:35;;;;;;;18.13;13.52;;;;;;;18.17;61.99;100645.38;5093380;28;20123;-70
2022/05/20 06:10:03;;;;;;;16.20;11.95;;;;;;;18.36;61.50;100625.28;5110142;27;20090;-68
2022/05/20 06:12:31;;;;;;;19.75;12.73;;;;;;;18.68;61.14;100640.91;5110453;27;20741;-69
2022/05/20 06:14:58;;;;;;;13.07;11.70;;;;;;;18.97;60.97;100653.56;5107429;27;20090;-69
2022/05/20 06:17:25;;;;;;;15.60;13.25;;;;;;;19.10;60.38;100632.75;5123894;28;20553;-70
2022/05/20 06:19:51;;;;;;;20.55;14.55;;;;;;;19.35;60.36;100652.81;5109732;28;20146;-69
2022/05/20 06:22:18;;;;;;;18.75;13.00;;;;;;;19.50;59.98;100631.63;5107932;27;20135;-70
2022/05/20 06:24:45;;;;;;;15.73;13.70;;;;;;;19.77;59.63;100647.41;5110971;28;20135;-71
2022/05/20 06:27:12;;;;;;;13.85;12.50;;;;;;;20.15;59.20;100660.69;5112450;28;20127;-70
2022/05/20 06:29:38;;;;;;;14.98;11.90;;;;;;;20.21;58.85;100636.66;5112541;28;20138;-69
2022/05/20 06:32:06;;;;;;;21.65;13.25;;;;;;;20.41;58.43;100633.00;5111809;28;20092;-70
2022/05/20 06:39:48;;;;;;;14.77;13.48;;;;;;;20.72;58.22;100657.31;5117322;28;20059;-71
2022/05/20 06:40:11;;;;;;;15.68;13.23;;;;;;;21.19;57.12;100674.06;5097382;28;20117;-71
2022/05/20 06:42:38;;;;;;;21.45;14.88;;;;;;;21.28;56.80;100669.13;5114552;27;20160;-72
2022/05/20 06:45:06;;;;;;;22.05;15.60;;;;;;;21.47;56.57;100669.47;5112894;27;20047;-71
2022/05/20 06:47:33;;;;;;;17.33;14.98;;;;;;;21.59;55.98;100676.34;5114656;27;20477;-70
2022/05/20 06:50:01;;;;;;;20.92;16.10;;;;;;;21.66;55.93;100670.91;5127898;27;20433;-71
2022/05/20 06:52:27;;;;;;;19.05;13.70;;;;;;;21.79;55.59;100681.13;5132632;27;20051;-70
2022/05/20 06:55:06;;;;;;;16.50;14.38;;;;;;;21.94;55.54;100669.03;5112858;27;20081;-71
2022/05/20 06:57:37;;;;;;;15.32;13.73;;;;;;;22.03;54.97;100665.25;5120804;27;20132;-70
2022/05/20 07:00:06;;;;;;;19.55;12.93;;;;;;;22.17;54.57;100655.22;5117125;28;20083;-70
2022/05/20 07:02:33;;;;;;;22.83;17.02;;;;;;;22.34;54.10;100676.06;5119513;27;20077;-69
2022/05/20 07:05:03;;;;;;;15.32;13.93;;;;;;;22.42;53.80;100667.38;5116137;27;20123;-69
2022/05/20 07:07:31;;;;;;;17.67;15.43;;;;;;;22.39;53.87;100641.66;5116895;27;20082;-70
2022/05/20 07:09:58;;;;;;;13.30;11.88;;;;;;;22.54;53.27;100677.09;5120286;27;20135;-64
2022/05/20 07:12:26;;;;;;;16.55;12.32;;;;;;;22.64;53.01;100673.75;5134363;27;20497;-65
2022/05/20 07:14:52;;;;;;;16.83;13.20;;;;;;;22.82;53.21;100675.13;5131872;27;20051;-66
2022/05/20 07:17:20;;;;;;;18.77;16.35;;;;;;;23.02;52.58;100673.31;5095931;28;20159;-65
2022/05/20 07:19:49;;;;;;;21.45;15.13;;;;;;;23.16;52.45;100670.03;5109563;27;20126;-65
2022/05/20 07:22:16;;;;;;;21.42;13.93;;;;;;;23.07;52.20;100632.31;5132326;27;20458;-66
2022/05/20 07:24:43;;;;;;;24.60;16.05;;;;;;;23.42;51.33;100675.25;5119839;27;20134;-65
2022/05/20 07:27:10;;;;;;;24.27;17.35;;;;;;;23.53;51.44;100684.09;5116437;27;20066;-66
2022/05/20 07:29:38;;;;;;;21.65;13.85;;;;;;;23.68;51.00;100691.03;5111920;27;20139;-64
2022/05/20 07:32:06;;;;;;;14.05;11.70;;;;;;;23.77;50.71;100678.25;5116073;27;20082;-64
2022/05/20 07:34:34;;;;;;;21.10;12.48;;;;;;;23.96;50.79;100682.41;5113324;28;20048;-66
2022/05/20 07:37:01;;;;;;;14.40;12.25;;;;;;;24.13;50.42;100670.59;5111666;27;20089;-65
2022/05/20 07:39:28;;;;;;;15.10;13.50;;;;;;;24.28;50.06;100678.31;5110382;27;20083;-65
2022/05/20 07:41:55;;;;;;;16.95;11.77;;;;;;;24.39;49.35;100680.59;5114462;28;20082;-65
2022/05/20 07:44:22;;;;;;;17.15;11.82;;;;;;;24.56;49.13;100683.91;5110945;28;20086;-65
2022/05/20 07:46:49;;;;;;;17.45;14.80;;;;;;;24.77;48.93;100677.84;5112778;27;20469;-65
2022/05/20 07:49:16;;;;;;;15.15;11.52;;;;;;;24.91;48.55;100680.19;5105962;27;20043;-66
2022/05/20 07:51:48;;;;;;;18.55;11.23;;;;;;;24.95;48.36;100640.25;5113345;28;20090;-65
2022/05/20 07:54:23;;;;;;;13.77;11.52;;;;;;;25.15;48.18;100661.94;5114154;27;20039;-66
2022/05/20 07:56:57;;;;;;;15.55;10.95;;;;;;;25.39;48.18;100659.97;5107723;28;20079;-66
2022/05/20 07:59:30;;;;;;;13.88;10.52;;;;;;;25.53;47.95;100651.66;5109408;28;20487;-65
2022/05/20 08:02:00;;;;;;;12.65;10.48;;;;;;;25.69;47.51;100655.22;5109029;27;20184;-66
2022/05/20 08:04:53;;;;;;;14.50;11.80;;;;;;;25.95;47.12;100659.38;5113345;27;20130;-66
2022/05/20 08:07:22;;;;;;;17.63;13.43;;;;;;;26.14;46.90;100661.31;5109848;27;20103;-65
2022/05/20 08:09:49;;;;;;;;;;;;;;;26.09;47.96;100659.63;5113450;28;20090;-65
2022/05/20 08:12:16;;;;;;;15.38;13.90;;;;;;;26.18;46.93;100647.88;5111661;27;20003;-65
2022/05/20 08:14:48;;;;;;;17.00;15.40;;;;;;;26.47;46.48;100657.78;5093824;28;20043;-66
2022/05/20 08:17:15;;;;;;;16.35;11.65;;;;;;;26.67;46.22;100662.16;5111206;27;20157;-66
2022/05/20 08:19:42;;;;;;;17.92;12.95;;;;;;;26.82;45.73;100665.22;5110967;27;20104;-66
2022/05/20 08:22:10;;;;;;;11.90;10.50;;;;;;;26.79;45.29;100634.47;5112886;27;20147;-66
2022/05/20 08:24:37;;;;;;;18.42;13.70;;;;;;;26.69;45.03;100613.88;5112487;27;20078;-66
2022/05/20 08:27:04;;;;;;;12.25;11.00;;;;;;;26.99;44.92;100635.97;5119568;27;20198;-65
2022/05/20 08:29:33;;;;;;;16.55;12.15;;;;;;;27.27;44.44;100637.53;5120970;27;20062;-67
2022/05/20 08:32:00;;;;;;;17.58;12.13;;;;;;;27.46;43.81;100650.88;5114545;27;20083;-65
2022/05/20 08:34:27;;;;;;;15.70;11.95;;;;;;;27.58;43.89;100654.25;5110653;27;20051;-64
2022/05/20 08:36:54;;;;;;;18.55;12.40;;;;;;;27.74;43.78;100656.88;5112087;27;20079;-66
2022/05/20 08:39:21;;;;;;;18.27;12.30;;;;;;;27.79;43.07;100647.13;5110700;27;20083;-65
2022/05/20 08:41:51;;;;;;;15.48;12.25;;;;;;;27.99;42.89;100642.78;5111752;27;20090;-66
2022/05/20 08:44:20;;;;;;;14.48;11.35;;;;;;;28.16;43.01;100646.19;5112799;27;20271;-65
2022/05/20 08:46:48;;;;;;;12.85;10.30;;;;;;;28.24;42.50;100633.53;5110914;27;20079;-66
2022/05/20 08:49:17;;;;;;;16.33;11.55;;;;;;;28.42;42.44;100628.78;5122255;27;20112;-66
2022/05/20 08:51:50;;;;;;;14.43;11.63;;;;;;;28.63;42.15;100638.75;5114727;27;20135;-66
2022/05/20 08:54:17;;;;;;;13.35;11.70;;;;;;;28.75;41.69;100626.88;5112987;27;20051;-66
2022/05/20 08:56:46;;;;;;;17.77;11.88;;;;;;;28.92;41.59;100643.38;5112706;27;20134;-66
2022/05/20 08:59:19;;;;;;;13.93;12.48;;;;;;;29.04;40.91;100637.31;5110743;27;20071;-66
2022/05/20 09:01:51;;;;;;;12.95;11.57;;;;;;;29.17;41.09;100631.22;5110325;28;20131;-66
2022/05/20 09:04:22;;;;;;;11.88;10.68;;;;;;;29.39;40.54;100643.59;5112259;28;20047;-65
2022/05/20 09:07:06;;;;;;;13.32;10.77;;;;;;;29.50;40.18;100630.88;5111998;28;20043;-66
2022/05/20 09:09:50;;;;;;;11.98;10.95;;;;;;;29.67;40.60;100635.03;5114377;28;20124;-66
2022/05/20 09:12:31;;;;;;;11.10;10.25;;;;;;;29.80;40.18;100638.34;5110338;27;20079;-66
2022/05/20 09:18:04;;;;;;;10.38;8.80;;;;;;;30.14;39.50;100626.41;5115514;27;20082;-66
2022/05/20 09:20:31;;;;;;;10.32;9.30;;;;;;;30.26;38.62;100626.00;5110109;27;20073;-66
2022/05/20 09:23:06;;;;;;;10.55;9.55;;;;;;;30.34;38.57;100623.94;5110402;27;20059;-66
2022/05/20 09:25:36;;;;;;;10.93;9.93;;;;;;;30.39;38.72;100618.59;5114360;27;20134;-65
2022/05/20 09:28:30;;;;;;;14.93;10.05;;;;;;;30.53;38.59;100619.75;5111569;27;20136;-66
2022/05/20 09:31:42;;;;;;;12.75;10.48;;;;;;;30.58;38.87;100633.75;5111218;27;20104;-66
2022/05/20 09:34:14;;;;;;;12.68;11.38;;;;;;;30.78;38.21;100617.66;5092767;27;20059;-65
2022/05/20 09:36:49;;;;;;;13.05;11.73;;;;;;;30.91;37.86;100613.09;5113845;27;20532;-65
2022/05/20 09:39:25;;;;;;;13.60;11.82;;;;;;;31.13;37.75;100618.75;5115393;27;20553;-65
2022/05/20 09:41:56;;;;;;;15.68;11.35;;;;;;;31.25;37.86;100611.66;5106955;27;20043;-65
2022/05/20 09:44:31;;;;;;;15.35;11.32;;;;;;;31.47;37.60;100626.81;5112150;28;20078;-65
2022/05/20 09:47:05;;;;;;;12.73;11.18;;;;;;;31.61;36.98;100600.72;5111948;28;20109;-65
2022/05/20 09:49:44;;;;;;;12.90;11.60;;;;;;;31.85;36.44;100619.91;5117650;27;20411;-66
2022/05/20 09:52:20;;;;;;;11.32;10.05;;;;;;;31.99;36.67;100606.63;5115688;27;20095;-65
2022/05/20 09:54:57;;;;;;;11.38;10.25;;;;;;;32.13;35.92;100608.56;5111265;28;20051;-66
2022/05/20 09:57:36;;;;;;;11.57;10.35;;;;;;;32.21;35.64;100613.03;5111571;27;20083;-66
2022/05/20 10:00:07;;;;;;;11.25;10.27;;;;;;;32.39;35.57;100624.41;5111108;28;20124;-65
2022/05/20 10:03:29;;;;;;;12.70;11.50;;;;;;;32.58;35.12;100612.22;5111195;27;20127;-66
2022/05/20 10:06:18;;;;;;;15.38;9.43;;;;;;;32.71;35.13;100606.72;5054367;28;20135;-66
2022/05/20 10:09:27;;;;;;;12.60;10.68;;;;;;;32.84;35.20;100601.19;5109106;27;20086;-66
2022/05/20 10:12:07;;;;;;;11.25;10.13;;;;;;;33.04;34.50;100605.09;5090579;28;20126;-66
2022/05/20 10:15:15;;;;;;;11.13;10.02;;;;;;;33.05;34.13;100597.22;5111870;28;20087;-65
2022/05/20 10:18:26;;;;;;;11.82;11.02;;;;;;;33.37;34.00;100605.44;5104530;28;20171;-66
2022/05/20 10:21:30;;;;;;;11.93;10.93;;;;;;;33.60;33.65;100599.72;5126054;27;20126;-66
2022/05/20 10:24:34;;;;;;;10.38;9.63;;;;;;;33.80;33.55;100588.25;5114993;27;20557;-66
2022/05/20 10:27:07;;;;;;;10.30;9.40;;;;;;;33.97;33.28;100592.91;5109130;28;20086;-65
2022/05/20 10:32:58;;;;;;;11.82;10.52;;;;;;;34.09;32.65;100606.00;5122952;28;20413;-65
2022/05/20 10:35:30;;;;;;;11.77;10.63;;;;;;;34.26;32.55;100588.69;5106942;28;20138;-66
2022/05/20 10:38:24;;;;;;;12.32;9.30;;;;;;;34.34;32.54;100596.00;5111144;28;20131;-66
2022/05/20 10:41:29;;;;;;;11.40;10.40;;;;;;;34.45;32.49;100587.91;5111602;28;20138;-65
2022/05/20 10:50:33;;;;;;;9.65;8.65;;;;;;;35.04;32.07;100595.81;5092666;28;20048;-66
2022/05/20 10:53:55;;;;;;;10.02;9.23;;;;;;;35.18;32.40;100588.06;5107213;28;20425;-65
2022/05/20 10:56:34;;;;;;;12.30;11.27;;;;;;;35.37;31.71;100590.94;5105152;28;20051;-67
2022/05/20 10:59:03;;;;;;;;;;;;;;;35.29;32.80;100571.25;5111090;28;20127;-66
2022/05/20 11:01:49;;;;;;;11.05;10.07;;;;;;;35.66;31.42;100566.22;5108835;28;19963;-66
2022/05/20 11:04:41;;;;;;;12.73;11.55;;;;;;;35.88;31.30;100561.50;5110847;28;20047;-66
2022/05/20 11:07:25;;;;;;;10.80;9.77;;;;;;;35.94;30.44;100553.03;5108317;28;20047;-66
2022/05/20 11:10:07;;;;;;;12.10;10.93;;;;;;;35.90;30.25;100570.56;5112475;28;20079;-67
2022/05/20 11:12:57;;;;;;;12.18;9.48;;;;;;;35.89;30.20;100548.59;5112061;28;20074;-66
2022/05/20 11:16:12;;;;;;;11.05;9.85;;;;;;;35.92;29.89;100550.56;5073041;28;20090;-66
2022/05/20 11:18:58;;;;;;;10.73;9.82;;;;;;;36.03;30.54;100561.94;5061167;28;20575;-65
2022/05/20 11:21:27;;;;;;;11.15;10.05;;;;;;;36.10;30.40;100555.13;5109328;28;20524;-65
2022/05/20 11:24:01;;;;;;;10.02;8.88;;;;;;;36.12;30.25;100546.78;5115140;27;20044;-66
2022/05/20 11:26:59;;;;;;;11.40;10.35;;;;;;;36.08;30.50;100543.16;5114723;27;20505;-66
2022/05/20 11:29:40;;;;;;;11.17;10.17;;;;;;;36.20;30.34;100554.81;5102851;27;20083;-67
2022/05/20 11:32:11;;;;;;;11.48;10.38;;;;;;;36.39;30.22;100538.50;5107946;27;20500;-67
2022/05/20 11:34:57;;;;;;;13.93;13.00;;;;;;;36.56;30.47;100542.22;5114508;28;20079;-66
2022/05/20 11:37:35;;;;;;;10.50;9.55;;;;;;;36.69;30.04;100521.88;5116217;28;20811;-67
2022/05/20 11:40:17;;;;;;;12.98;11.63;;;;;;;36.68;29.99;100528.97;5115801;28;20101;-67
2022/05/20 11:42:58;;;;;;;11.32;10.43;;;;;;;36.60;29.73;100524.66;5115953;28;20452;-67
2022/05/20 11:45:34;;;;;;;12.52;11.63;;;;;;;36.74;29.08;100524.22;5114872;28;20134;-67
2022/05/20 11:48:01;;;;;;;12.63;11.40;;;;;;;36.92;29.10;100541.13;5116001;28;20391;-67
2022/05/20 11:50:34;;;;;;;10.35;9.27;;;;;;;37.08;29.30;100543.16;5115876;28;20082;-66
2022/05/20 11:53:01;;;;;;;9.77;8.90;;;;;;;37.25;28.63;100530.13;5115740;28;20056;-67
2022/05/20 11:55:43;;;;;;;11.18;9.93;;;;;;;36.98;28.29;100505.19;5115922;28;20075;-67
2022/05/20 11:58:20;;;;;;;12.82;11.05;;;;;;;37.18;28.94;100518.72;5114062;28;20136;-67
2022/05/20 12:00:49;;;;;;;14.50;10.32;;;;;;;37.49;28.31;100516.03;5115543;28;20494;-67
2022/05/20 12:03:24;;;;;;;11.73;9.00;;;;;;;37.89;27.96;100495.09;5115598;28;20048;-67
2022/05/20 12:05:52;;;;;;;12.55;11.35;;;;;;;38.26;27.98;100519.59;5115513;28;20126;-68
2022/05/20 12:08:37;;;;;;;11.27;10.15;;;;;;;38.53;27.59;100507.34;5115490;28;20083;-68